createdAt,value
2022-12-20T00:01:39.595Z,-4.2
2022-12-20T00:06:37.890Z,-3.9
2022-12-20T00:11:36.309Z,-3.6
2022-12-20T00:16:34.856Z,-3.7
2022-12-20T00:21:33.339Z,-3.8
2022-12-20T00:26:31.366Z,-3.9
2022-12-20T00:31:29.413Z,-4.2
2022-12-20T00:36:27.728Z,-4.2
2022-12-20T00:41:26.046Z,-4.2
2022-12-20T00:46:24.781Z,-4
2022-12-20T00:51:22.811Z,-3.9
2022-12-20T00:56:21.417Z,-3.8
2022-12-20T01:01:19.820Z,-3.8
2022-12-20T01:06:17.842Z,-3.9
2022-12-20T01:11:15.879Z,-3.9
2022-12-20T01:16:14.243Z,-4
2022-12-20T01:21:12.397Z,-4.1
2022-12-20T01:26:10.153Z,-4.4
2022-12-20T01:31:08.252Z,-4.6
2022-12-20T01:36:06.532Z,-4.6
2022-12-20T01:41:04.477Z,-4.8
2022-12-20T01:46:02.438Z,-4.9
2022-12-20T01:51:00.726Z,-5
2022-12-20T01:55:59.037Z,-5.2
2022-12-20T02:00:57.222Z,-5.3
2022-12-20T02:05:55.315Z,-5.5
2022-12-20T02:10:53.561Z,-5.5
2022-12-20T02:15:51.900Z,-5.6
2022-12-20T02:20:49.969Z,-5.7
2022-12-20T02:25:48.160Z,-5.7
2022-12-20T02:30:46.236Z,-5.9
2022-12-20T02:35:44.423Z,-6
2022-12-20T02:40:42.672Z,-6
2022-12-20T02:45:40.841Z,-6.2
2022-12-20T02:50:39.462Z,-6.1
2022-12-20T02:55:37.799Z,-6.1
2022-12-20T03:00:35.976Z,-6.3
2022-12-20T03:05:34.253Z,-6.3
2022-12-20T03:10:32.608Z,-6.2
2022-12-20T03:15:30.982Z,-6.3
2022-12-20T03:20:29.393Z,-6.3
2022-12-20T03:25:27.856Z,-6.2
2022-12-20T03:30:26.071Z,-6.4
2022-12-20T03:35:24.200Z,-6.5
2022-12-20T03:40:22.503Z,-6.6
2022-12-20T03:45:20.599Z,-6.6
2022-12-20T03:50:18.854Z,-6.7
2022-12-20T03:55:16.995Z,-6.5
2022-12-20T04:00:15.218Z,-6.6
2022-12-20T04:05:13.445Z,-6.7
2022-12-20T04:10:11.584Z,-6.5
2022-12-20T04:15:09.789Z,-6.4
2022-12-20T04:20:08.177Z,-6.4
2022-12-20T04:25:06.239Z,-6.7
2022-12-20T04:30:04.385Z,-6.8
2022-12-20T04:35:02.534Z,-7
2022-12-20T04:40:00.863Z,-7.1
2022-12-20T04:44:59.022Z,-7.2
2022-12-20T04:49:57.053Z,-7.3
2022-12-20T04:54:55.269Z,-7.3
2022-12-20T04:59:53.489Z,-7.3
2022-12-20T05:04:51.996Z,-7.2
2022-12-20T05:09:50.115Z,-7.2
2022-12-20T05:14:48.528Z,-7.3
2022-12-20T05:19:47.109Z,-7.2
2022-12-20T05:24:45.676Z,-7.1
2022-12-20T05:29:44.144Z,-6.9
2022-12-20T05:34:42.808Z,-6.8
2022-12-20T05:39:40.960Z,-6.9
2022-12-20T05:44:39.268Z,-7.1
2022-12-20T05:49:37.368Z,-7.2
2022-12-20T05:54:35.311Z,-7.4
2022-12-20T05:59:33.636Z,-7.4
2022-12-20T06:04:31.965Z,-7.3
2022-12-20T06:09:30.343Z,-7.3
2022-12-20T06:14:28.813Z,-7.1
2022-12-20T06:19:27.552Z,-6.8
2022-12-20T06:24:26.025Z,-6.5
2022-12-20T06:29:24.506Z,-6.3
2022-12-20T06:34:23.050Z,-6.3
2022-12-20T06:39:21.947Z,-6.2
2022-12-20T06:44:20.535Z,-5.9
2022-12-20T06:49:18.951Z,-5.7
2022-12-20T06:54:17.638Z,-5.6
2022-12-20T06:59:16.005Z,-5.3
2022-12-20T07:04:15.379Z,-2.8
2022-12-20T07:09:19.928Z,2.9
2022-12-20T07:14:23.245Z,6.7
2022-12-20T07:19:24.161Z,8.9
2022-12-20T07:24:23.621Z,9.9
2022-12-20T07:29:23.352Z,11.3
2022-12-20T07:34:23.056Z,12.5
2022-12-20T07:39:21.738Z,12.7
2022-12-20T07:44:20.208Z,12.4
2022-12-20T07:49:18.241Z,12.6
2022-12-20T07:54:17.268Z,13.4
2022-12-20T07:59:15.288Z,12.8
2022-12-20T08:04:14.472Z,13.4
2022-12-20T08:09:12.332Z,13.8
2022-12-20T08:14:12.463Z,15
2022-12-20T08:19:12.016Z,16.1
2022-12-20T08:24:11.053Z,16.7
2022-12-20T08:29:09.950Z,17.1
2022-12-20T08:34:09.018Z,17.7
2022-12-20T08:39:07.617Z,18
2022-12-20T08:44:05.804Z,17.9
2022-12-20T08:49:04.218Z,18.3
2022-12-20T08:54:02.916Z,17.8
2022-12-20T08:59:02.206Z,17.9
2022-12-20T09:04:01.374Z,18.4
2022-12-20T09:08:59.512Z,18.3
2022-12-20T09:13:57.755Z,17.7
2022-12-20T09:18:59.302Z,17.5
2022-12-20T09:23:54.545Z,17.8
2022-12-20T09:28:52.666Z,17.6
2022-12-20T09:33:51.101Z,18.2
2022-12-20T09:38:51.196Z,18.6
2022-12-20T09:43:49.487Z,18.8
2022-12-20T09:48:47.742Z,19.8
2022-12-20T09:53:45.954Z,19
2022-12-20T09:58:44.579Z,19.5
2022-12-20T10:03:42.634Z,19
2022-12-20T10:08:41.137Z,20
2022-12-20T10:13:38.641Z,19
2022-12-20T10:18:36.762Z,18.4
2022-12-20T10:23:35.171Z,19.4
2022-12-20T10:28:34.735Z,20.6
2022-12-20T10:33:33.661Z,20.7
2022-12-20T10:38:31.409Z,19.7
2022-12-20T10:43:28.539Z,18.9
2022-12-20T10:48:26.719Z,17.9
2022-12-20T10:53:24.713Z,17.7
2022-12-20T10:58:22.005Z,16.9
2022-12-20T11:03:20.076Z,16.6
2022-12-20T11:13:12.785Z,13.5
2022-12-20T11:18:09.575Z,12
2022-12-20T11:23:05.832Z,10.8
2022-12-20T11:28:03.645Z,10.6
2022-12-20T11:33:01.606Z,10.4
2022-12-20T11:38:04.132Z,10.4
2022-12-20T11:42:57.727Z,10.2
2022-12-20T11:47:55.785Z,9.7
2022-12-20T11:52:53.688Z,9.3
2022-12-20T11:58:16.672Z,8.7
2022-12-20T12:02:53.179Z,8.3
2022-12-20T12:07:46.904Z,7.9
2022-12-20T12:12:44.700Z,7.4
2022-12-20T12:17:42.833Z,7.2
2022-12-20T12:22:40.796Z,7.3
2022-12-20T12:27:42.038Z,7.3
2022-12-20T12:32:40.744Z,7
2022-12-20T12:37:37.793Z,7
2022-12-20T12:42:35.714Z,6.8
2022-12-20T12:47:33.858Z,5.9
2022-12-20T12:52:35.660Z,4.7
2022-12-20T12:57:28.718Z,3.9
2022-12-20T13:02:26.606Z,3
2022-12-20T13:07:23.675Z,2.6
2022-12-20T13:12:21.576Z,1.7
2022-12-20T13:17:25.701Z,1.5
2022-12-20T13:22:17.157Z,1.2
2022-12-20T13:27:14.949Z,0.8
2022-12-20T13:32:12.925Z,0.5
2022-12-20T13:37:11.145Z,0.3
2022-12-20T13:42:09.330Z,-0.1
2022-12-20T13:47:07.295Z,-0.2
2022-12-20T13:52:05.444Z,-0.3
2022-12-20T13:57:03.346Z,-0.4
2022-12-20T14:02:01.647Z,-0.4
2022-12-20T14:06:59.892Z,-0.6
2022-12-20T14:11:58.640Z,-0.8
2022-12-20T14:16:56.858Z,-0.8
2022-12-20T14:21:55.091Z,-1
2022-12-20T14:26:53.228Z,-1
2022-12-20T14:31:51.362Z,-1.3
2022-12-20T14:36:49.492Z,-1.6
2022-12-20T14:41:47.676Z,-1.5
2022-12-20T14:46:48.982Z,-1.8
2022-12-20T14:51:43.965Z,-2.1
2022-12-20T14:56:41.952Z,-2.2
2022-12-20T15:01:43.753Z,-2.3
2022-12-20T15:06:37.765Z,-2.6
2022-12-20T15:11:36.029Z,-2.8
2022-12-20T15:16:34.274Z,-2.9
2022-12-20T15:21:32.293Z,-3.1
2022-12-20T15:26:30.382Z,-3.1
2022-12-20T15:31:33.239Z,-3.2
2022-12-20T15:36:26.814Z,-3.5
2022-12-20T15:41:24.930Z,-3.4
2022-12-20T15:46:23.250Z,-3.5
2022-12-20T15:51:21.852Z,-3.7
2022-12-20T15:56:20.029Z,-3.7
2022-12-20T16:01:18.290Z,-3.6
2022-12-20T16:06:16.409Z,-3.7
2022-12-20T16:11:14.774Z,-3.8
2022-12-20T16:16:13.118Z,-3.8
2022-12-20T16:21:11.074Z,-4
2022-12-20T16:26:09.422Z,-4
2022-12-20T16:31:07.798Z,-4
2022-12-20T16:36:06.009Z,-4.1
2022-12-20T16:41:04.502Z,-4.1
2022-12-20T16:46:02.838Z,-4.3
2022-12-20T16:51:01.198Z,-4.3
2022-12-20T16:55:59.487Z,-4.5
2022-12-20T17:00:57.814Z,-4.5
2022-12-20T17:05:55.926Z,-4.6
2022-12-20T17:10:54.181Z,-4.5
2022-12-20T17:15:52.513Z,-4.5
2022-12-20T17:20:50.720Z,-4.6
2022-12-20T17:25:53.844Z,-4.7
2022-12-20T17:30:47.120Z,-4.7
2022-12-20T17:35:45.356Z,-4.8
2022-12-20T17:40:43.587Z,-4.8
2022-12-20T17:45:41.817Z,-4.8
2022-12-20T17:50:40.262Z,-4.8
2022-12-20T17:55:38.435Z,-4.8
2022-12-20T18:00:39.448Z,-4.8
2022-12-20T18:05:35.132Z,-4.9
2022-12-20T18:10:33.509Z,-5
2022-12-20T18:15:31.693Z,-5.1
2022-12-20T18:20:29.623Z,-5.2
2022-12-20T18:25:28.073Z,-5.2
2022-12-20T18:30:26.510Z,-5.2
2022-12-20T18:35:24.734Z,-5.2
2022-12-20T18:40:22.976Z,-5.3
2022-12-20T18:45:21.156Z,-5.3
2022-12-20T18:50:19.262Z,-5.4
2022-12-20T18:55:17.474Z,-5.3
2022-12-20T19:00:15.982Z,-5.3
2022-12-20T19:05:14.437Z,-5.3
2022-12-20T19:10:12.672Z,-5.3
2022-12-20T19:15:10.935Z,-5.4
2022-12-20T19:20:09.089Z,-5.6
2022-12-20T19:25:07.204Z,-5.7
2022-12-20T19:30:05.547Z,-5.6
2022-12-20T19:35:16.745Z,-5.7
2022-12-20T19:40:02.711Z,-5.7
2022-12-20T19:45:01.102Z,-5.8
2022-12-20T19:49:59.195Z,-5.8
2022-12-20T19:54:57.325Z,-5.8
2022-12-20T19:59:56.062Z,-5.8
2022-12-20T20:04:53.661Z,-5.8
2022-12-20T20:09:51.896Z,-5.8
2022-12-20T20:14:50.029Z,-5.7
2022-12-20T20:19:48.173Z,-5.7
2022-12-20T20:24:46.612Z,-5.7
2022-12-20T20:29:45.026Z,-5.8
2022-12-20T20:34:43.419Z,-5.8
2022-12-20T20:39:41.683Z,-5.8
2022-12-20T20:44:39.820Z,-5.9
2022-12-20T20:49:38.082Z,-5.9
2022-12-20T20:54:36.449Z,-5.9
2022-12-20T20:59:34.631Z,-5.9
2022-12-20T21:04:32.950Z,-6
2022-12-20T21:09:30.967Z,-6
2022-12-20T21:14:53.376Z,-6.1
2022-12-20T21:19:27.500Z,-6.1
2022-12-20T21:24:25.748Z,-6
2022-12-20T21:29:23.985Z,-6
2022-12-20T21:34:21.921Z,-6
2022-12-20T21:39:20.172Z,-6
2022-12-20T21:44:18.273Z,-6
2022-12-20T21:49:16.567Z,-6.1
2022-12-20T21:54:14.738Z,-6.1
2022-12-20T21:59:12.803Z,-6.1
2022-12-20T22:04:10.948Z,-6.2
2022-12-20T22:09:09.520Z,-6.3
2022-12-20T22:14:07.866Z,-6.4
2022-12-20T22:19:06.070Z,-6.5
2022-12-20T22:24:04.310Z,-6.4
2022-12-20T22:29:02.547Z,-6.5
2022-12-20T22:34:01.001Z,-6.5
2022-12-20T22:38:59.410Z,-6.6
2022-12-20T22:43:57.761Z,-6.7
2022-12-20T22:48:56.211Z,-6.7
2022-12-20T22:53:54.383Z,-6.7
2022-12-20T22:58:52.784Z,-6.7
2022-12-20T23:03:51.212Z,-6.7
2022-12-20T23:08:49.416Z,-6.7
2022-12-20T23:13:47.722Z,-6.8
2022-12-20T23:18:46.297Z,-6.7
2022-12-20T23:23:44.603Z,-6.7
2022-12-20T23:28:43.031Z,-6.7
2022-12-20T23:33:41.240Z,-6.7
2022-12-20T23:38:39.618Z,-6.7
2022-12-20T23:43:37.900Z,-6.8
2022-12-20T23:48:36.156Z,-6.7
2022-12-20T23:53:34.550Z,-6.8
2022-12-20T23:58:32.794Z,-6.8
